Time;durP1;ratioP1;P1;durP2;ratioP2;P2;SDS_P1;SDS_P2;PMS_P1;PMS_P2;Temp;Humidity;BMP_temperature;BMP_pressure;BME280_temperature;BME280_humidity;BME280_pressure;Samples;Min_cycle;Max_cycle;Signal;HPM_P1;HPM_P2
2023/03/27 00:03:09;;;;;;;0.68;0.28;;;;;;;;;;10518813;28;20047;-78
2023/03/27 00:08:14;;;;;;;2.72;1.10;;;;;;;;;;10517291;28;20086;-78
2023/03/27 00:13:17;;;;;;;0.22;0.20;;;;;;;;;;10514092;28;20115;-78
2023/03/27 00:18:28;;;;;;;1.65;0.40;;;;;;;;;;10515799;28;20408;-80
2023/03/27 00:23:31;;;;;;;;;;;;;;;;;;10516875;28;20093;-78
2023/03/27 00:28:36;;;;;;;0.20;0.20;;;;;;;;;;10512878;28;19920;-77
2023/03/27 00:33:39;;;;;;;0.10;0.10;;;;;;;;;;10518365;28;20032;-76
2023/03/27 00:38:44;;;;;;;0.07;0.07;;;;;;;;;;10489995;28;20055;-78
2023/03/27 00:43:50;;;;;;;0.20;0.20;;;;;;;;;;10515734;28;20044;-76
2023/03/27 00:48:55;;;;;;;0.35;0.20;;;;;;;;;;10519477;28;20461;-78
2023/03/27 00:53:59;;;;;;;1.45;0.30;;;;;;;;;;10514659;28;20173;-78
2023/03/27 00:59:05;;;;;;;0.20;0.20;;;;;;;;;;10510574;28;20028;-77
2023/03/27 01:04:08;;;;;;;1.75;0.40;;;;;;;;;;10516937;28;20142;-77
2023/03/27 01:09:11;;;;;;;0.17;0.17;;;;;;;;;;10518401;28;20393;-77
2023/03/27 01:14:29;;;;;;;1.75;0.30;;;;;;;;;;10519175;28;20504;-77
2023/03/27 01:19:52;;;;;;;1.85;0.50;;;;;;;;;;10508463;28;20040;-77
2023/03/27 01:25:20;;;;;;;0.20;0.20;;;;;;;;;;10521998;28;20040;-77
2023/03/27 01:30:38;;;;;;;0.73;0.50;;;;;;;;;;10467926;28;20101;-77
2023/03/27 01:36:04;;;;;;;0.85;0.32;;;;;;;;;;10497463;28;20040;-76
2023/03/27 01:41:11;;;;;;;0.40;0.30;;;;;;;;;;10512518;28;20044;-78
2023/03/27 01:46:18;;;;;;;1.13;0.40;;;;;;;;;;10516110;28;20551;-78
2023/03/27 01:51:23;;;;;;;0.25;0.25;;;;;;;;;;10510471;28;20143;-77
2023/03/27 01:56:30;;;;;;;0.15;0.10;;;;;;;;;;10526236;28;20052;-76
2023/03/27 02:01:37;;;;;;;0.20;0.20;;;;;;;;;;10528613;28;20047;-76
2023/03/27 02:06:42;;;;;;;0.47;0.38;;;;;;;;;;10523358;28;20036;-76
2023/03/27 02:11:50;;;;;;;0.90;0.38;;;;;;;;;;10518212;28;20036;-77
2023/03/27 02:16:54;;;;;;;0.40;0.30;;;;;;;;;;10518988;28;20058;-77
2023/03/27 02:21:57;;;;;;;0.30;0.30;;;;;;;;;;10515313;28;20474;-76
2023/03/27 02:27:07;;;;;;;0.37;0.37;;;;;;;;;;10521608;28;20068;-77
2023/03/27 02:32:20;;;;;;;0.40;0.38;;;;;;;;;;10528639;28;20032;-78
2023/03/27 02:37:29;;;;;;;0.65;0.65;;;;;;;;;;10519998;28;20515;-78
2023/03/27 02:42:41;;;;;;;0.40;0.40;;;;;;;;;;10520979;28;20451;-78
2023/03/27 02:47:47;;;;;;;0.40;0.40;;;;;;;;;;10521665;28;20044;-77
2023/03/27 02:52:52;;;;;;;0.70;0.70;;;;;;;;;;10516881;28;20666;-77
2023/03/27 02:57:58;;;;;;;0.43;0.40;;;;;;;;;;10508273;28;20451;-78
2023/03/27 03:03:05;;;;;;;0.52;0.50;;;;;;;;;;10521768;28;20119;-78
2023/03/27 03:08:09;;;;;;;0.52;0.52;;;;;;;;;;10517577;28;20306;-77
2023/03/27 03:13:15;;;;;;;0.40;0.28;;;;;;;;;;10516156;28;20436;-78
2023/03/27 03:18:18;;;;;;;1.00;0.73;;;;;;;;;;10521087;28;20094;-77
2023/03/27 03:23:22;;;;;;;0.60;0.50;;;;;;;;;;10517270;28;20488;-77
2023/03/27 03:28:26;;;;;;;0.57;0.57;;;;;;;;;;10525467;28;20032;-77
2023/03/27 03:33:30;;;;;;;;;;;;;;;;;;10518388;28;20558;-77
2023/03/27 03:38:34;;;;;;;0.40;0.40;;;;;;;;;;10516522;28;19965;-76
2023/03/27 03:43:41;;;;;;;0.60;0.52;;;;;;;;;;10516729;28;20032;-78
2023/03/27 03:48:43;;;;;;;1.08;0.70;;;;;;;;;;10521948;28;20048;-78
2023/03/27 03:53:46;;;;;;;0.52;0.43;;;;;;;;;;10519970;28;20146;-78
2023/03/27 03:58:51;;;;;;;0.20;0.20;;;;;;;;;;10519611;28;20047;-78
2023/03/27 04:03:54;;;;;;;1.80;0.60;;;;;;;;;;10514720;28;20048;-78
2023/03/27 04:08:57;;;;;;;0.80;0.50;;;;;;;;;;10517010;28;20097;-78
2023/03/27 04:14:02;;;;;;;0.50;0.50;;;;;;;;;;10509198;28;20043;-78
2023/03/27 04:19:05;;;;;;;0.63;0.50;;;;;;;;;;10519548;28;20521;-78
2023/03/27 04:24:12;;;;;;;0.80;0.60;;;;;;;;;;10514550;28;20042;-78
2023/03/27 04:29:21;;;;;;;0.75;0.45;;;;;;;;;;10519586;28;20151;-77
2023/03/27 04:34:24;;;;;;;1.52;0.80;;;;;;;;;;10497670;28;20040;-76
2023/03/27 04:39:28;;;;;;;2.35;1.25;;;;;;;;;;10499212;28;20043;-78
2023/03/27 04:44:33;;;;;;;;;;;;;;;;;;10518890;28;20090;-77
2023/03/27 04:49:39;;;;;;;1.58;1.10;;;;;;;;;;10519108;28;19928;-78
2023/03/27 04:54:42;;;;;;;0.63;0.63;;;;;;;;;;10494884;28;20039;-78
2023/03/27 04:59:45;;;;;;;0.75;0.70;;;;;;;;;;10512849;28;20036;-78
2023/03/27 05:04:49;;;;;;;0.82;0.57;;;;;;;;;;10498095;28;20085;-78
2023/03/27 05:09:52;;;;;;;0.90;0.70;;;;;;;;;;10514063;28;20029;-77
2023/03/27 05:14:55;;;;;;;0.98;0.60;;;;;;;;;;10516346;28;20055;-77
2023/03/27 05:19:59;;;;;;;1.55;1.00;;;;;;;;;;10490942;28;20085;-78
2023/03/27 05:25:03;;;;;;;0.60;0.60;;;;;;;;;;10506639;28;20067;-78
2023/03/27 05:30:06;;;;;;;1.05;0.55;;;;;;;;;;10519022;28;20044;-78
2023/03/27 05:35:11;;;;;;;1.08;0.57;;;;;;;;;;10521091;28;20054;-78
2023/03/27 05:40:15;;;;;;;0.70;0.70;;;;;;;;;;10526370;28;20182;-78
2023/03/27 05:45:18;;;;;;;1.33;0.90;;;;;;;;;;10521392;28;20043;-77
2023/03/27 05:50:24;;;;;;;0.95;0.77;;;;;;;;;;10507696;28;20409;-77
2023/03/27 05:55:28;;;;;;;1.02;0.70;;;;;;;;;;10521376;28;20056;-78
2023/03/27 06:00:41;;;;;;;0.90;0.77;;;;;;;;;;10520396;28;20044;-78
2023/03/27 06:05:47;;;;;;;2.05;0.85;;;;;;;;;;10520116;28;20137;-79
2023/03/27 06:10:51;;;;;;;1.13;0.90;;;;;;;;;;10528214;28;20782;-79
2023/03/27 06:15:59;;;;;;;0.73;0.60;;;;;;;;;;10523833;28;20605;-78
2023/03/27 06:21:04;;;;;;;0.70;0.70;;;;;;;;;;10520768;28;20456;-78
2023/03/27 06:26:08;;;;;;;1.27;0.95;;;;;;;;;;10519116;28;20040;-76
2023/03/27 06:31:20;;;;;;;1.30;1.00;;;;;;;;;;10507598;28;20097;-77
2023/03/27 06:36:34;;;;;;;1.40;0.90;;;;;;;;;;10488426;28;20128;-77
2023/03/27 06:41:47;;;;;;;0.70;0.68;;;;;;;;;;10516640;28;20036;-78
2023/03/27 06:46:50;;;;;;;0.98;0.60;;;;;;;;;;10488544;28;20044;-78
2023/03/27 06:51:54;;;;;;;1.20;0.90;;;;;;;;;;10514034;28;20051;-77
2023/03/27 06:57:00;;;;;;;0.57;0.57;;;;;;;;;;10507847;28;20047;-78
2023/03/27 07:02:03;;;;;;;2.65;0.90;;;;;;;;;;10509802;28;20043;-79
2023/03/27 07:07:08;;;;;;;1.50;0.80;;;;;;;;;;10505691;28;20044;-78
2023/03/27 07:12:11;;;;;;;;;;;;;;;;;;10507308;28;20044;-77
2023/03/27 07:17:14;;;;;;;0.82;0.63;;;;;;;;;;10511043;28;19965;-77
2023/03/27 07:22:18;;;;;;;1.52;0.82;;;;;;;;;;10505775;28;20312;-77
2023/03/27 07:27:23;;;;;;;1.95;0.88;;;;;;;;;;10510604;28;20044;-77
2023/03/27 07:32:28;;;;;;;0.50;0.50;;;;;;;;;;10504587;28;20032;-77
2023/03/27 07:37:41;;;;;;;3.17;0.60;;;;;;;;;;10509033;28;20040;-78
2023/03/27 07:42:48;;;;;;;0.40;0.40;;;;;;;;;;10508025;28;20047;-77
2023/03/27 07:47:52;;;;;;;;;;;;;;;;;;10508997;28;20031;-77
2023/03/27 07:52:59;;;;;;;1.60;1.00;;;;;;;;;;10504143;28;19920;-77
2023/03/27 07:58:12;;;;;;;1.13;0.90;;;;;;;;;;10505779;28;20105;-77
2023/03/27 08:03:16;;;;;;;0.80;0.75;;;;;;;;;;10505163;28;20036;-78
2023/03/27 08:08:20;;;;;;;2.13;1.40;;;;;;;;;;10506677;28;20457;-76
2023/03/27 08:13:32;;;;;;;3.25;1.60;;;;;;;;;;10509819;28;20047;-76
2023/03/27 08:18:35;;;;;;;4.40;1.92;;;;;;;;;;10502586;28;20043;-77
2023/03/27 08:23:39;;;;;;;;;;;;;;;;;;10506964;28;20050;-77
2023/03/27 08:28:52;;;;;;;4.00;1.90;;;;;;;;;;10506412;28;20363;-77
2023/03/27 08:33:55;;;;;;;6.20;2.60;;;;;;;;;;10505779;28;20490;-77
2023/03/27 08:39:01;;;;;;;5.88;2.42;;;;;;;;;;10487645;28;20035;-76
2023/03/27 08:44:08;;;;;;;4.68;1.98;;;;;;;;;;10506364;28;20837;-76
2023/03/27 08:49:15;;;;;;;4.00;2.08;;;;;;;;;;10498322;28;20118;-78
2023/03/27 08:54:25;;;;;;;6.00;1.90;;;;;;;;;;10506063;28;20118;-78
2023/03/27 08:59:30;;;;;;;3.28;1.52;;;;;;;;;;10499261;28;20123;-76
2023/03/27 09:04:38;;;;;;;5.60;2.72;;;;;;;;;;10499340;28;20289;-77
2023/03/27 09:09:46;;;;;;;9.32;3.53;;;;;;;;;;10499456;28;20142;-76
2023/03/27 09:14:56;;;;;;;7.50;3.50;;;;;;;;;;10509645;28;20424;-76
2023/03/27 09:20:05;;;;;;;12.20;3.75;;;;;;;;;;10513088;28;20176;-76
2023/03/27 09:25:27;;;;;;;10.13;3.35;;;;;;;;;;10516985;28;20067;-76
2023/03/27 09:30:35;;;;;;;7.72;3.35;;;;;;;;;;10509190;28;20557;-77
2023/03/27 09:35:38;;;;;;;9.55;3.05;;;;;;;;;;10513936;28;20361;-79
2023/03/27 09:40:49;;;;;;;7.07;2.75;;;;;;;;;;10506197;28;20462;-76
2023/03/27 09:45:54;;;;;;;4.00;2.40;;;;;;;;;;10500847;28;20579;-78
2023/03/27 09:50:58;;;;;;;10.63;2.95;;;;;;;;;;10506643;28;20127;-77
2023/03/27 09:56:03;;;;;;;7.57;2.75;;;;;;;;;;10506108;28;20083;-78
2023/03/27 10:01:15;;;;;;;13.00;3.85;;;;;;;;;;10510688;28;20040;-77
2023/03/27 10:06:25;;;;;;;10.38;2.88;;;;;;;;;;10506079;28;20126;-80
2023/03/27 10:11:38;;;;;;;8.57;3.00;;;;;;;;;;10509716;28;20542;-77
2023/03/27 10:16:44;;;;;;;5.82;2.35;;;;;;;;;;10514526;28;20052;-78
2023/03/27 10:21:50;;;;;;;7.70;2.92;;;;;;;;;;10510634;28;20036;-78
2023/03/27 10:26:59;;;;;;;7.03;2.42;;;;;;;;;;10512917;28;20533;-78
2023/03/27 10:32:05;;;;;;;7.47;2.40;;;;;;;;;;10516105;28;20051;-78
2023/03/27 10:37:19;;;;;;;6.13;2.55;;;;;;;;;;10520593;28;20047;-77
2023/03/27 10:42:25;;;;;;;7.97;2.53;;;;;;;;;;10518474;28;20051;-77
2023/03/27 10:47:36;;;;;;;6.53;2.47;;;;;;;;;;10515772;28;20865;-80
2023/03/27 10:52:45;;;;;;;5.07;2.00;;;;;;;;;;10492382;28;20055;-79
2023/03/27 10:57:51;;;;;;;3.85;2.20;;;;;;;;;;10504869;28;20202;-79
2023/03/27 11:02:57;;;;;;;7.43;2.50;;;;;;;;;;10509833;28;20517;-79
2023/03/27 11:08:03;;;;;;;5.50;2.22;;;;;;;;;;10513142;28;20048;-80
2023/03/27 11:13:09;;;;;;;10.55;2.92;;;;;;;;;;10510667;28;20032;-77
2023/03/27 11:18:17;;;;;;;4.45;2.42;;;;;;;;;;10492290;28;20054;-78
2023/03/27 11:23:23;;;;;;;6.75;2.83;;;;;;;;;;10506630;28;20086;-79
2023/03/27 11:28:32;;;;;;;8.70;2.22;;;;;;;;;;10506250;28;20650;-78
2023/03/27 11:33:40;;;;;;;6.78;2.13;;;;;;;;;;10501945;28;20048;-79
2023/03/27 11:38:47;;;;;;;4.70;2.50;;;;;;;;;;10507797;28;20099;-79
2023/03/27 11:43:50;;;;;;;3.92;2.22;;;;;;;;;;10505754;28;20134;-77
2023/03/27 11:49:08;;;;;;;1.90;1.77;;;;;;;;;;10509087;28;20066;-78
2023/03/27 11:54:25;;;;;;;8.60;2.28;;;;;;;;;;10506807;28;20519;-78
2023/03/27 11:59:27;;;;;;;;;;;;;;;;;;10508094;28;20037;-78
2023/03/27 12:04:31;;;;;;;;;;;;;;;;;;10515692;28;20569;-78
2023/03/27 12:09:43;;;;;;;3.83;2.10;;;;;;;;;;10505011;28;20389;-78
2023/03/27 12:14:51;;;;;;;4.60;1.80;;;;;;;;;;10506557;28;20649;-79
2023/03/27 12:20:15;;;;;;;3.53;1.65;;;;;;;;;;10505810;28;20060;-79
2023/03/27 12:25:18;;;;;;;;;;;;;;;;;;10480104;28;20051;-76
2023/03/27 12:30:32;;;;;;;3.40;1.73;;;;;;;;;;10503380;28;20366;-76
2023/03/27 12:35:37;;;;;;;6.90;2.28;;;;;;;;;;10508521;28;20144;-76
2023/03/27 12:40:47;;;;;;;3.22;1.48;;;;;;;;;;10504027;28;20550;-76
2023/03/27 12:46:06;;;;;;;3.35;1.30;;;;;;;;;;10486903;28;20060;-77
2023/03/27 12:51:14;;;;;;;5.05;1.23;;;;;;;;;;10503859;28;20097;-77
2023/03/27 12:56:25;;;;;;;9.82;1.35;;;;;;;;;;10504374;28;20040;-78
2023/03/27 13:01:45;;;;;;;3.15;1.40;;;;;;;;;;10519733;27;20052;-78
2023/03/27 13:07:00;;;;;;;6.20;2.13;;;;;;;;;;10500190;28;20070;-77
2023/03/27 13:12:21;;;;;;;3.67;1.58;;;;;;;;;;10502290;28;20414;-76
2023/03/27 13:17:34;;;;;;;2.88;1.33;;;;;;;;;;10506858;28;20040;-77
2023/03/27 13:22:47;;;;;;;5.13;1.13;;;;;;;;;;10500699;28;20133;-77
2023/03/27 13:28:04;;;;;;;0.88;0.60;;;;;;;;;;10505202;28;20042;-77
2023/03/27 13:33:17;;;;;;;3.28;1.25;;;;;;;;;;10510279;28;20130;-77
2023/03/27 13:38:38;;;;;;;3.47;1.08;;;;;;;;;;10499370;28;20129;-77
2023/03/27 13:43:46;;;;;;;3.13;0.80;;;;;;;;;;10511053;28;20032;-78
2023/03/27 13:49:13;;;;;;;0.80;0.50;;;;;;;;;;10518396;28;20032;-78
2023/03/27 13:54:38;;;;;;;3.28;1.10;;;;;;;;;;10492370;28;20048;-76
2023/03/27 13:59:56;;;;;;;1.77;0.80;;;;;;;;;;10515531;28;20409;-78
2023/03/27 14:05:11;;;;;;;2.60;0.90;;;;;;;;;;10509085;28;20102;-78
2023/03/27 14:10:19;;;;;;;2.65;0.70;;;;;;;;;;10513981;28;20365;-77
2023/03/27 14:15:39;;;;;;;1.27;0.43;;;;;;;;;;10512854;28;20119;-77
2023/03/27 14:20:46;;;;;;;2.47;0.60;;;;;;;;;;10491168;28;20067;-77
2023/03/27 14:26:00;;;;;;;1.50;0.90;;;;;;;;;;10510424;28;20051;-76
2023/03/27 14:31:05;;;;;;;3.55;0.98;;;;;;;;;;10513416;28;20043;-77
2023/03/27 14:36:15;;;;;;;1.23;0.80;;;;;;;;;;10488323;28;20044;-77
2023/03/27 14:41:20;;;;;;;0.93;0.50;;;;;;;;;;10515466;28;20064;-77
2023/03/27 14:46:24;;;;;;;4.85;0.80;;;;;;;;;;10508527;28;20063;-77
2023/03/27 14:51:33;;;;;;;0.63;0.63;;;;;;;;;;10503269;28;20083;-77
2023/03/27 14:56:40;;;;;;;1.63;0.70;;;;;;;;;;10513898;28;20044;-77
2023/03/27 15:01:43;;;;;;;1.23;0.68;;;;;;;;;;10509311;28;20234;-77
2023/03/27 15:06:48;;;;;;;0.90;0.88;;;;;;;;;;10506117;28;20131;-77
2023/03/27 15:11:54;;;;;;;2.72;0.82;;;;;;;;;;10505633;28;20394;-77
2023/03/27 15:16:59;;;;;;;1.27;0.80;;;;;;;;;;10508990;28;20210;-77
2023/03/27 15:22:04;;;;;;;2.55;1.00;;;;;;;;;;10509564;28;20161;-77
2023/03/27 15:27:13;;;;;;;1.10;0.77;;;;;;;;;;10491005;28;20069;-77
2023/03/27 15:32:20;;;;;;;0.98;0.77;;;;;;;;;;10493132;28;20424;-77
2023/03/27 15:37:27;;;;;;;3.53;0.80;;;;;;;;;;10503916;28;20063;-77
2023/03/27 15:42:32;;;;;;;1.42;0.85;;;;;;;;;;10508126;28;20059;-77
2023/03/27 15:47:36;;;;;;;1.13;0.82;;;;;;;;;;10505406;28;20051;-79
2023/03/27 15:52:46;;;;;;;2.65;1.00;;;;;;;;;;10508963;28;20044;-79
2023/03/27 15:57:49;;;;;;;2.30;0.95;;;;;;;;;;10505802;28;20040;-78
2023/03/27 16:02:51;;;;;;;2.67;1.17;;;;;;;;;;10506008;28;20035;-79
2023/03/27 16:07:56;;;;;;;1.98;0.60;;;;;;;;;;10506055;28;20143;-78
2023/03/27 16:13:01;;;;;;;1.88;0.90;;;;;;;;;;10508542;28;20051;-78
2023/03/27 16:18:13;;;;;;;2.75;1.40;;;;;;;;;;10505909;28;20063;-78
2023/03/27 16:23:17;;;;;;;1.92;1.60;;;;;;;;;;10506936;28;20713;-79
2023/03/27 16:28:20;;;;;;;1.42;1.30;;;;;;;;;;10504741;28;20053;-78
2023/03/27 16:33:24;;;;;;;1.93;1.03;;;;;;;;;;10489368;28;20397;-77
2023/03/27 16:38:32;;;;;;;3.90;1.20;;;;;;;;;;10503644;28;21063;-77
2023/03/27 16:43:36;;;;;;;0.70;0.70;;;;;;;;;;10482269;28;20051;-77
2023/03/27 16:48:38;;;;;;;2.88;0.80;;;;;;;;;;10504598;28;20520;-78
2023/03/27 16:53:42;;;;;;;0.77;0.50;;;;;;;;;;10503674;28;20028;-77
2023/03/27 16:58:45;;;;;;;0.93;0.63;;;;;;;;;;10505439;28;20497;-77
2023/03/27 17:03:48;;;;;;;4.93;1.05;;;;;;;;;;10503252;28;20032;-77
2023/03/27 17:08:54;;;;;;;3.35;1.10;;;;;;;;;;10508339;28;20342;-78
2023/03/27 17:13:57;;;;;;;1.60;0.70;;;;;;;;;;10508145;28;20136;-79
2023/03/27 17:19:05;;;;;;;5.20;1.30;;;;;;;;;;10503700;28;20452;-77
2023/03/27 17:24:10;;;;;;;3.13;1.05;;;;;;;;;;10486335;28;20040;-79
2023/03/27 17:29:12;;;;;;;2.92;1.40;;;;;;;;;;10506090;28;20503;-78
2023/03/27 17:34:18;;;;;;;4.78;1.90;;;;;;;;;;10504255;28;20051;-78
2023/03/27 17:39:23;;;;;;;3.05;1.60;;;;;;;;;;10503390;28;20039;-79
2023/03/27 17:44:26;;;;;;;4.60;2.28;;;;;;;;;;10506878;28;20545;-79
2023/03/27 17:49:30;;;;;;;4.72;1.88;;;;;;;;;;10504539;28;20074;-79
2023/03/27 17:54:34;;;;;;;0.70;0.60;;;;;;;;;;10498297;28;20504;-79
2023/03/27 17:59:37;;;;;;;1.83;0.90;;;;;;;;;;10508882;28;20054;-78
2023/03/27 18:04:40;;;;;;;2.03;1.15;;;;;;;;;;10503716;28;20041;-79
2023/03/27 18:09:45;;;;;;;1.67;0.63;;;;;;;;;;10481091;28;20214;-78
2023/03/27 18:14:48;;;;;;;0.65;0.25;;;;;;;;;;10503447;28;20578;-78
2023/03/27 18:19:51;;;;;;;0.52;0.50;;;;;;;;;;10507828;28;20036;-78
2023/03/27 18:24:55;;;;;;;1.52;0.57;;;;;;;;;;10503061;28;20048;-80
2023/03/27 18:29:58;;;;;;;0.75;0.52;;;;;;;;;;10505052;28;20056;-78
2023/03/27 18:35:02;;;;;;;4.22;1.83;;;;;;;;;;10512733;28;20036;-78
2023/03/27 18:40:09;;;;;;;2.42;1.55;;;;;;;;;;10510366;28;20175;-78
2023/03/27 18:45:13;;;;;;;4.30;1.58;;;;;;;;;;10510648;28;20409;-78
2023/03/27 18:50:17;;;;;;;3.65;1.40;;;;;;;;;;10510104;28;20039;-79
2023/03/27 18:55:21;;;;;;;3.80;1.35;;;;;;;;;;10509274;28;20473;-79
2023/03/27 19:00:24;;;;;;;3.38;1.58;;;;;;;;;;10492098;28;20429;-79
2023/03/27 19:05:28;;;;;;;8.45;2.13;;;;;;;;;;10491337;28;20061;-76
2023/03/27 19:10:33;;;;;;;6.97;2.17;;;;;;;;;;10491235;28;20143;-77
2023/03/27 19:15:40;;;;;;;2.97;1.77;;;;;;;;;;10510535;28;20043;-77
2023/03/27 19:20:44;;;;;;;5.85;2.20;;;;;;;;;;10507872;28;20450;-77
2023/03/27 19:25:49;;;;;;;3.22;1.13;;;;;;;;;;10509696;28;20039;-77
2023/03/27 19:30:52;;;;;;;6.07;2.60;;;;;;;;;;10507060;28;20182;-77
2023/03/27 19:35:55;;;;;;;4.10;1.63;;;;;;;;;;10505334;28;20687;-77
2023/03/27 19:41:01;;;;;;;2.57;1.23;;;;;;;;;;10511339;28;20753;-78
2023/03/27 19:46:03;;;;;;;3.33;1.40;;;;;;;;;;10501971;28;20235;-78
2023/03/27 19:51:17;;;;;;;;;;;;;;;;;;10484967;28;20040;-76
2023/03/27 19:56:21;;;;;;;3.05;0.98;;;;;;;;;;10511505;28;20077;-78
2023/03/27 20:01:27;;;;;;;2.77;1.17;;;;;;;;;;10508737;28;20067;-75
2023/03/27 20:06:30;;;;;;;1.80;0.90;;;;;;;;;;10518161;27;20052;-77
2023/03/27 20:11:34;;;;;;;1.20;0.83;;;;;;;;;;10516133;28;20044;-77
2023/03/27 20:16:38;;;;;;;2.10;1.10;;;;;;;;;;10513637;28;20039;-75
2023/03/27 20:21:42;;;;;;;0.70;0.47;;;;;;;;;;10515048;28;20055;-78
2023/03/27 20:26:46;;;;;;;2.22;1.45;;;;;;;;;;10515183;28;20039;-77
2023/03/27 20:31:49;;;;;;;2.90;1.47;;;;;;;;;;10493409;28;20135;-76
2023/03/27 20:36:57;;;;;;;1.67;0.90;;;;;;;;;;10498249;28;20066;-76
2023/03/27 20:42:01;;;;;;;1.47;0.97;;;;;;;;;;10514128;28;20129;-78
2023/03/27 20:47:09;;;;;;;1.45;0.52;;;;;;;;;;10515532;28;20059;-76
2023/03/27 20:52:13;;;;;;;2.77;1.67;;;;;;;;;;10512485;28;20051;-76
2023/03/27 20:57:17;;;;;;;1.70;0.83;;;;;;;;;;10516380;28;20040;-77
2023/03/27 21:02:20;;;;;;;1.40;1.23;;;;;;;;;;10513335;28;20129;-78
2023/03/27 21:07:23;;;;;;;4.67;2.40;;;;;;;;;;10521669;28;20195;-77
2023/03/27 21:12:27;;;;;;;4.33;1.87;;;;;;;;;;10516488;28;20370;-77
2023/03/27 21:17:31;;;;;;;1.53;1.10;;;;;;;;;;10507252;28;20032;-75
2023/03/27 21:22:36;;;;;;;2.97;1.60;;;;;;;;;;10512110;28;20040;-76
2023/03/27 21:27:40;;;;;;;4.50;2.10;;;;;;;;;;10511530;28;20028;-78
2023/03/27 21:32:44;;;;;;;2.40;1.35;;;;;;;;;;10517994;28;20052;-76
2023/03/27 21:37:46;;;;;;;3.17;1.77;;;;;;;;;;10514744;28;20485;-78
2023/03/27 21:42:51;;;;;;;2.47;1.50;;;;;;;;;;10499328;28;20128;-77
2023/03/27 21:47:54;;;;;;;;;;;;;;;;;;10520884;28;20054;-78
2023/03/27 21:52:57;;;;;;;1.43;0.87;;;;;;;;;;10519536;28;19931;-78
2023/03/27 21:58:01;;;;;;;1.23;0.90;;;;;;;;;;10500990;28;20044;-76
2023/03/27 22:03:03;;;;;;;5.55;2.10;;;;;;;;;;10517177;28;20260;-77
2023/03/27 22:08:07;;;;;;;2.80;1.27;;;;;;;;;;10522574;28;20028;-77
2023/03/27 22:13:11;;;;;;;6.27;1.63;;;;;;;;;;10529373;28;20040;-77
2023/03/27 22:18:13;;;;;;;;;;;;;;;;;;10505380;28;20493;-77
2023/03/27 22:23:17;;;;;;;2.67;1.27;;;;;;;;;;10525960;28;19920;-78
2023/03/27 22:28:21;;;;;;;3.27;1.37;;;;;;;;;;10521312;28;20461;-77
2023/03/27 22:33:25;;;;;;;2.80;1.07;;;;;;;;;;10517221;28;20558;-78
2023/03/27 22:38:29;;;;;;;4.90;1.17;;;;;;;;;;10504791;28;20439;-77
2023/03/27 22:43:33;;;;;;;2.70;1.20;;;;;;;;;;10523612;28;20043;-77
2023/03/27 22:48:36;;;;;;;3.35;1.55;;;;;;;;;;10517515;28;20089;-78
2023/03/27 22:53:40;;;;;;;2.63;1.70;;;;;;;;;;10522032;28;20065;-76
2023/03/27 22:58:43;;;;;;;2.23;0.90;;;;;;;;;;10522264;28;20089;-78
2023/03/27 23:03:46;;;;;;;5.57;1.43;;;;;;;;;;10519327;28;20161;-78
2023/03/27 23:08:54;;;;;;;1.73;1.20;;;;;;;;;;10508886;28;20043;-77
2023/03/27 23:13:58;;;;;;;4.43;1.60;;;;;;;;;;10526144;28;20039;-78
2023/03/27 23:19:01;;;;;;;7.53;1.70;;;;;;;;;;10517777;28;20044;-77
2023/03/27 23:24:04;;;;;;;5.17;1.93;;;;;;;;;;10527418;28;20500;-77
2023/03/27 23:29:16;;;;;;;3.00;1.40;;;;;;;;;;10524123;28;20068;-76
2023/03/27 23:34:19;;;;;;;;;;;;;;;;;;10525535;28;20044;-77
2023/03/27 23:39:22;;;;;;;4.80;1.90;;;;;;;;;;10502796;28;20019;-77
2023/03/27 23:44:26;;;;;;;4.17;1.53;;;;;;;;;;10528313;28;20058;-76
2023/03/27 23:49:29;;;;;;;;;;;;;;;;;;10520363;28;20033;-77
2023/03/27 23:54:34;;;;;;;3.15;1.35;;;;;;;;;;10521426;28;20412;-76
2023/03/27 23:59:38;;;;;;;3.77;1.80;;;;;;;;;;10510040;28;20132;-76
